Boogertown, North Carolina
Current Conditions -  °F | °C
As of 11:54 PM on Saturday 22 Nov 2014 (Local Time) from KAKH Reporting Station
Broken Clouds Broken Clouds  
Wind Chill: 42°   Ceiling: 4400
Heat Index: 42°   Visibility: 10mi
Dew Point: 28°   Wind: 3mph
Humidity: 58%   Direction: 30°NNE
Pressure: 30.3"   Gusts: NA
Location:  35.2205°N, 81.2501°W
Report Text: KAKH 230454Z AUTO 03003KT 10SM BKN044 06/M02 A3030 RMK AO2 SLP262 T00561022 401331039
Loading
Personal Weather Stations






























Interactive Weather Map New forecast layout! Learn more

10-Day Weather Forecast

Advertisements
Track Severe Weather on mobile